sensor_id;sensor_type;location;lat;lon;timestamp;pressure;altitude;pressure_sealevel;temperature;humidity
69766;BME280;57039;48.014;21.384;2023-07-29T00:00:41;100152.37;;;19.48;100.00
69766;BME280;57039;48.014;21.384;2023-07-29T00:01:44;100155.56;;;19.51;100.00
69766;BME280;57039;48.014;21.384;2023-07-29T00:02:47;100150.94;;;19.53;100.00
69766;BME280;57039;48.014;21.384;2023-07-29T00:03:50;100156.50;;;19.60;100.00
69766;BME280;57039;48.014;21.384;2023-07-29T00:04:53;100133.06;;;19.46;100.00
69766;BME280;57039;48.014;21.384;2023-07-29T00:05:56;100152.69;;;19.62;100.00
69766;BME280;57039;48.014;21.384;2023-07-29T00:06:59;100150.88;;;19.63;100.00
69766;BME280;57039;48.014;21.384;2023-07-29T00:08:01;100154.91;;;19.67;100.00
69766;BME280;57039;48.014;21.384;2023-07-29T00:09:04;100156.06;;;19.65;100.00
69766;BME280;57039;48.014;21.384;2023-07-29T00:10:07;100151.84;;;19.62;100.00
69766;BME280;57039;48.014;21.384;2023-07-29T00:11:10;100157.16;;;19.62;100.00
69766;BME280;57039;48.014;21.384;2023-07-29T00:12:13;100162.44;;;19.54;100.00
69766;BME280;57039;48.014;21.384;2023-07-29T00:13:16;100159.91;;;19.52;100.00
69766;BME280;57039;48.014;21.384;2023-07-29T00:14:20;100146.19;;;19.47;100.00
69766;BME280;57039;48.014;21.384;2023-07-29T00:15:23;100156.94;;;19.55;100.00
69766;BME280;57039;48.014;21.384;2023-07-29T00:16:26;100160.06;;;19.51;100.00
69766;BME280;57039;48.014;21.384;2023-07-29T00:17:29;100135.50;;;19.39;100.00
69766;BME280;57039;48.014;21.384;2023-07-29T00:18:32;100153.81;;;19.42;100.00
69766;BME280;57039;48.014;21.384;2023-07-29T00:19:35;100154.66;;;19.43;100.00
69766;BME280;57039;48.014;21.384;2023-07-29T00:20:37;100156.63;;;19.41;100.00
69766;BME280;57039;48.014;21.384;2023-07-29T00:21:40;100163.06;;;19.38;100.00
69766;BME280;57039;48.014;21.384;2023-07-29T00:22:43;100157.09;;;19.36;100.00
69766;BME280;57039;48.014;21.384;2023-07-29T00:23:46;100158.03;;;19.35;100.00
69766;BME280;57039;48.014;21.384;2023-07-29T00:24:53;100163.94;;;19.38;100.00
69766;BME280;57039;48.014;21.384;2023-07-29T00:25:59;100160.41;;;19.38;100.00
69766;BME280;57039;48.014;21.384;2023-07-29T00:27:02;100160.03;;;19.33;100.00
69766;BME280;57039;48.014;21.384;2023-07-29T00:28:05;100158.50;;;19.30;100.00
69766;BME280;57039;48.014;21.384;2023-07-29T00:29:08;100168.63;;;19.27;100.00
69766;BME280;57039;48.014;21.384;2023-07-29T00:30:11;100166.41;;;19.22;100.00
69766;BME280;57039;48.014;21.384;2023-07-29T00:31:14;100144.66;;;19.09;100.00
69766;BME280;57039;48.014;21.384;2023-07-29T00:32:17;100155.34;;;19.17;100.00
69766;BME280;57039;48.014;21.384;2023-07-29T00:33:20;100125.22;;;18.99;100.00
69766;BME280;57039;48.014;21.384;2023-07-29T00:34:23;100157.34;;;19.15;100.00
69766;BME280;57039;48.014;21.384;2023-07-29T00:35:26;100163.78;;;19.12;100.00
69766;BME280;57039;48.014;21.384;2023-07-29T00:36:29;100153.47;;;19.09;100.00
69766;BME280;57039;48.014;21.384;2023-07-29T00:37:31;100164.22;;;19.08;100.00
69766;BME280;57039;48.014;21.384;2023-07-29T00:38:34;100161.44;;;19.09;100.00
69766;BME280;57039;48.014;21.384;2023-07-29T00:39:37;100165.75;;;19.10;100.00
69766;BME280;57039;48.014;21.384;2023-07-29T00:40:40;100156.41;;;19.06;100.00
69766;BME280;57039;48.014;21.384;2023-07-29T00:41:43;100160.19;;;19.04;100.00
69766;BME280;57039;48.014;21.384;2023-07-29T00:42:46;100158.84;;;19.00;100.00
69766;BME280;57039;48.014;21.384;2023-07-29T00:43:49;100159.78;;;18.99;100.00
69766;BME280;57039;48.014;21.384;2023-07-29T00:44:52;100158.13;;;18.98;100.00
69766;BME280;57039;48.014;21.384;2023-07-29T00:45:54;100164.56;;;18.95;100.00
69766;BME280;57039;48.014;21.384;2023-07-29T00:47:02;100153.81;;;18.97;100.00
69766;BME280;57039;48.014;21.384;2023-07-29T00:48:05;100152.94;;;18.96;100.00
69766;BME280;57039;48.014;21.384;2023-07-29T00:49:08;100159.13;;;18.97;100.00
69766;BME280;57039;48.014;21.384;2023-07-29T00:50:13;100151.97;;;18.97;100.00
69766;BME280;57039;48.014;21.384;2023-07-29T00:51:17;100155.78;;;18.95;100.00
69766;BME280;57039;48.014;21.384;2023-07-29T00:52:19;100156.47;;;18.97;100.00
69766;BME280;57039;48.014;21.384;2023-07-29T00:53:22;100159.41;;;18.93;100.00
69766;BME280;57039;48.014;21.384;2023-07-29T00:54:25;100165.69;;;18.92;100.00
69766;BME280;57039;48.014;21.384;2023-07-29T00:55:28;100159.97;;;18.87;100.00
69766;BME280;57039;48.014;21.384;2023-07-29T00:56:31;100161.97;;;18.85;100.00
69766;BME280;57039;48.014;21.384;2023-07-29T00:57:35;100159.31;;;18.85;100.00
69766;BME280;57039;48.014;21.384;2023-07-29T00:58:39;100152.31;;;18.84;100.00
69766;BME280;57039;48.014;21.384;2023-07-29T00:59:43;100156.25;;;18.80;100.00
69766;BME280;57039;48.014;21.384;2023-07-29T01:00:45;100137.50;;;18.72;100.00
69766;BME280;57039;48.014;21.384;2023-07-29T01:01:49;100153.59;;;18.80;100.00
69766;BME280;57039;48.014;21.384;2023-07-29T01:02:52;100149.81;;;18.83;100.00
69766;BME280;57039;48.014;21.384;2023-07-29T01:03:57;100157.62;;;18.84;100.00
69766;BME280;57039;48.014;21.384;2023-07-29T01:05:01;100156.25;;;18.80;100.00
69766;BME280;57039;48.014;21.384;2023-07-29T01:06:12;100158.91;;;18.70;100.00
69766;BME280;57039;48.014;21.384;2023-07-29T01:10:09;100163.09;;;18.83;100.00
69766;BME280;57039;48.014;21.384;2023-07-29T01:11:38;100163.22;;;18.81;100.00
69766;BME280;57039;48.014;21.384;2023-07-29T01:13:04;100164.38;;;18.79;100.00
69766;BME280;57039;48.014;21.384;2023-07-29T01:14:34;100157.38;;;18.78;100.00
69766;BME280;57039;48.014;21.384;2023-07-29T01:17:00;100155.84;;;18.75;100.00
69766;BME280;57039;48.014;21.384;2023-07-29T01:18:05;100163.81;;;18.75;100.00
69766;BME280;57039;48.014;21.384;2023-07-29T01:20:40;100120.75;;;18.62;100.00
69766;BME280;57039;48.014;21.384;2023-07-29T01:21:45;100152.87;;;18.78;100.00
69766;BME280;57039;48.014;21.384;2023-07-29T01:22:48;100153.06;;;18.77;100.00
69766;BME280;57039;48.014;21.384;2023-07-29T01:23:58;100157.38;;;18.78;100.00
69766;BME280;57039;48.014;21.384;2023-07-29T01:25:01;100148.72;;;18.76;100.00
69766;BME280;57039;48.014;21.384;2023-07-29T01:26:05;100158.50;;;18.75;100.00
69766;BME280;57039;48.014;21.384;2023-07-29T01:27:08;100157.09;;;18.71;100.00
69766;BME280;57039;48.014;21.384;2023-07-29T01:28:11;100160.03;;;18.68;100.00
69766;BME280;57039;48.014;21.384;2023-07-29T01:29:14;100159.34;;;18.66;100.00
69766;BME280;57039;48.014;21.384;2023-07-29T01:30:17;100162.16;;;18.64;100.00
69766;BME280;57039;48.014;21.384;2023-07-29T01:31:34;100156.31;;;18.61;100.00
69766;BME280;57039;48.014;21.384;2023-07-29T01:33:04;100148.34;;;18.51;100.00
69766;BME280;57039;48.014;21.384;2023-07-29T01:34:36;100154.06;;;18.56;100.00
69766;BME280;57039;48.014;21.384;2023-07-29T01:35:56;100152.41;;;18.55;100.00
69766;BME280;57039;48.014;21.384;2023-07-29T01:37:02;100157.12;;;18.52;100.00
69766;BME280;57039;48.014;21.384;2023-07-29T01:38:19;100161.50;;;18.53;100.00
69766;BME280;57039;48.014;21.384;2023-07-29T01:39:23;100156.88;;;18.55;100.00
69766;BME280;57039;48.014;21.384;2023-07-29T01:40:28;100161.19;;;18.56;100.00
69766;BME280;57039;48.014;21.384;2023-07-29T01:41:31;100160.22;;;18.57;100.00
69766;BME280;57039;48.014;21.384;2023-07-29T01:42:34;100153.53;;;18.53;100.00
69766;BME280;57039;48.014;21.384;2023-07-29T01:43:37;100161.03;;;18.57;100.00
69766;BME280;57039;48.014;21.384;2023-07-29T01:44:47;100158.09;;;18.60;100.00
69766;BME280;57039;48.014;21.384;2023-07-29T01:45:50;100149.03;;;18.53;100.00
69766;BME280;57039;48.014;21.384;2023-07-29T01:46:55;100156.59;;;18.58;100.00
69766;BME280;57039;48.014;21.384;2023-07-29T01:47:58;100147.50;;;18.51;100.00
69766;BME280;57039;48.014;21.384;2023-07-29T01:49:01;100149.47;;;18.48;100.00
69766;BME280;57039;48.014;21.384;2023-07-29T01:50:06;100163.31;;;18.52;100.00
69766;BME280;57039;48.014;21.384;2023-07-29T01:51:11;100152.13;;;18.48;100.00
69766;BME280;57039;48.014;21.384;2023-07-29T01:52:14;100155.47;;;18.51;100.00
69766;BME280;57039;48.014;21.384;2023-07-29T01:53:17;100144.59;;;18.44;100.00
69766;BME280;57039;48.014;21.384;2023-07-29T01:54:20;100124.63;;;18.30;100.00
69766;BME280;57039;48.014;21.384;2023-07-29T01:55:23;100161.38;;;18.44;100.00
69766;BME280;57039;48.014;21.384;2023-07-29T01:56:26;100161.91;;;18.48;100.00
69766;BME280;57039;48.014;21.384;2023-07-29T01:57:29;100159.41;;;18.46;100.00
69766;BME280;57039;48.014;21.384;2023-07-29T01:58:32;100121.47;;;18.17;100.00
69766;BME280;57039;48.014;21.384;2023-07-29T01:59:34;100169.22;;;18.36;100.00
69766;BME280;57039;48.014;21.384;2023-07-29T02:00:37;100164.19;;;18.33;100.00
69766;BME280;57039;48.014;21.384;2023-07-29T02:01:40;100160.84;;;18.31;100.00
69766;BME280;57039;48.014;21.384;2023-07-29T02:02:43;100158.87;;;18.33;100.00
69766;BME280;57039;48.014;21.384;2023-07-29T02:03:46;100164.19;;;18.33;100.00
69766;BME280;57039;48.014;21.384;2023-07-29T02:04:49;100159.72;;;18.34;100.00
69766;BME280;57039;48.014;21.384;2023-07-29T02:05:54;100161.41;;;18.35;100.00
69766;BME280;57039;48.014;21.384;2023-07-29T02:06:57;100146.72;;;18.21;100.00
69766;BME280;57039;48.014;21.384;2023-07-29T02:08:00;100154.41;;;18.24;100.00
69766;BME280;57039;48.014;21.384;2023-07-29T02:09:02;100159.91;;;18.13;100.00
69766;BME280;57039;48.014;21.384;2023-07-29T02:10:07;100162.94;;;18.18;100.00
69766;BME280;57039;48.014;21.384;2023-07-29T02:11:10;100159.34;;;18.19;100.00
69766;BME280;57039;48.014;21.384;2023-07-29T02:12:13;100166.16;;;18.21;100.00
69766;BME280;57039;48.014;21.384;2023-07-29T02:13:16;100158.34;;;18.20;100.00
69766;BME280;57039;48.014;21.384;2023-07-29T02:14:19;100163.09;;;18.26;100.00
69766;BME280;57039;48.014;21.384;2023-07-29T02:15:21;100159.16;;;18.30;100.00
69766;BME280;57039;48.014;21.384;2023-07-29T02:16:24;100159.16;;;18.30;100.00
69766;BME280;57039;48.014;21.384;2023-07-29T02:17:27;100154.97;;;18.28;100.00
69766;BME280;57039;48.014;21.384;2023-07-29T02:18:30;100156.38;;;18.32;100.00
69766;BME280;57039;48.014;21.384;2023-07-29T02:19:33;100159.03;;;18.32;100.00
69766;BME280;57039;48.014;21.384;2023-07-29T02:20:35;100155.13;;;18.26;100.00
69766;BME280;57039;48.014;21.384;2023-07-29T02:21:38;100150.81;;;18.25;100.00
69766;BME280;57039;48.014;21.384;2023-07-29T02:22:41;100159.72;;;18.24;100.00
69766;BME280;57039;48.014;21.384;2023-07-29T02:23:43;100146.47;;;18.14;100.00
69766;BME280;57039;48.014;21.384;2023-07-29T02:24:46;100168.41;;;18.16;100.00
69766;BME280;57039;48.014;21.384;2023-07-29T02:25:49;100164.22;;;18.14;100.00
69766;BME280;57039;48.014;21.384;2023-07-29T02:26:52;100156.84;;;18.08;100.00
69766;BME280;57039;48.014;21.384;2023-07-29T02:27:55;100163.97;;;18.07;100.00
69766;BME280;57039;48.014;21.384;2023-07-29T02:28:58;100165.06;;;18.05;100.00
69766;BME280;57039;48.014;21.384;2023-07-29T02:30:01;100164.38;;;18.02;100.00
69766;BME280;57039;48.014;21.384;2023-07-29T02:31:25;100159.22;;;18.01;100.00
69766;BME280;57039;48.014;21.384;2023-07-29T02:32:28;100163.41;;;17.94;100.00
69766;BME280;57039;48.014;21.384;2023-07-29T02:33:30;100170.25;;;17.96;100.00
69766;BME280;57039;48.014;21.384;2023-07-29T02:34:33;100168.84;;;18.02;100.00
69766;BME280;57039;48.014;21.384;2023-07-29T02:35:37;100170.66;;;18.01;100.00
69766;BME280;57039;48.014;21.384;2023-07-29T02:36:40;100157.69;;;17.98;100.00
69766;BME280;57039;48.014;21.384;2023-07-29T02:37:43;100169.56;;;18.04;100.00
69766;BME280;57039;48.014;21.384;2023-07-29T02:38:45;100170.94;;;18.08;100.00
69766;BME280;57039;48.014;21.384;2023-07-29T02:39:48;100175.13;;;18.11;100.00
69766;BME280;57039;48.014;21.384;2023-07-29T02:40:51;100169.94;;;18.09;100.00
69766;BME280;57039;48.014;21.384;2023-07-29T02:41:54;100166.47;;;18.09;100.00
69766;BME280;57039;48.014;21.384;2023-07-29T02:42:58;100165.63;;;18.08;100.00
69766;BME280;57039;48.014;21.384;2023-07-29T02:44:01;100174.44;;;18.09;100.00
69766;BME280;57039;48.014;21.384;2023-07-29T02:45:04;100169.81;;;18.11;100.00
69766;BME280;57039;48.014;21.384;2023-07-29T02:46:07;100173.19;;;18.13;100.00
69766;BME280;57039;48.014;21.384;2023-07-29T02:47:10;100164.94;;;18.16;100.00
69766;BME280;57039;48.014;21.384;2023-07-29T02:48:13;100166.16;;;18.21;100.00
69766;BME280;57039;48.014;21.384;2023-07-29T02:49:15;100172.59;;;18.29;100.00
69766;BME280;57039;48.014;21.384;2023-07-29T02:50:18;100161.69;;;18.32;100.00
69766;BME280;57039;48.014;21.384;2023-07-29T02:51:21;100166.00;;;18.33;100.00
69766;BME280;57039;48.014;21.384;2023-07-29T02:52:24;100156.94;;;18.25;100.00
69766;BME280;57039;48.014;21.384;2023-07-29T02:53:28;100158.59;;;18.36;100.00
69766;BME280;57039;48.014;21.384;2023-07-29T02:54:30;100162.94;;;18.37;100.00
69766;BME280;57039;48.014;21.384;2023-07-29T02:55:33;100164.59;;;18.38;100.00
69766;BME280;57039;48.014;21.384;2023-07-29T02:56:36;100165.00;;;18.43;100.00
69766;BME280;57039;48.014;21.384;2023-07-29T02:57:39;100170.88;;;18.47;100.00
69766;BME280;57039;48.014;21.384;2023-07-29T02:58:42;100163.72;;;18.47;100.00
69766;BME280;57039;48.014;21.384;2023-07-29T02:59:44;100146.72;;;18.40;100.00
69766;BME280;57039;48.014;21.384;2023-07-29T03:00:48;100165.81;;;18.54;100.00
69766;BME280;57039;48.014;21.384;2023-07-29T03:01:52;100164.69;;;18.56;100.00
69766;BME280;57039;48.014;21.384;2023-07-29T03:02:56;100165.09;;;18.52;100.00
69766;BME280;57039;48.014;21.384;2023-07-29T03:03:59;100161.34;;;18.54;100.00
69766;BME280;57039;48.014;21.384;2023-07-29T03:05:02;100158.59;;;18.46;100.00
69766;BME280;57039;48.014;21.384;2023-07-29T03:06:08;100178.12;;;18.45;100.00
69766;BME280;57039;48.014;21.384;2023-07-29T03:07:11;100162.22;;;18.35;100.00
69766;BME280;57039;48.014;21.384;2023-07-29T03:08:14;100176.06;;;18.39;100.00
69766;BME280;57039;48.014;21.384;2023-07-29T03:09:17;100171.75;;;18.28;100.00
69766;BME280;57039;48.014;21.384;2023-07-29T03:10:19;100157.25;;;18.13;100.00
69766;BME280;57039;48.014;21.384;2023-07-29T03:11:23;100183.34;;;18.27;100.00
69766;BME280;57039;48.014;21.384;2023-07-29T03:12:25;100176.09;;;18.29;100.00
69766;BME280;57039;48.014;21.384;2023-07-29T03:13:29;100172.84;;;18.35;100.00
69766;BME280;57039;48.014;21.384;2023-07-29T03:14:31;100169.50;;;18.33;100.00
69766;BME280;57039;48.014;21.384;2023-07-29T03:15:34;100175.09;;;18.30;100.00
69766;BME280;57039;48.014;21.384;2023-07-29T03:16:37;100173.56;;;18.28;100.00
69766;BME280;57039;48.014;21.384;2023-07-29T03:17:41;100176.22;;;18.28;100.00
69766;BME280;57039;48.014;21.384;2023-07-29T03:18:44;100176.50;;;18.24;100.00
69766;BME280;57039;48.014;21.384;2023-07-29T03:19:47;100181.97;;;18.23;100.00
69766;BME280;57039;48.014;21.384;2023-07-29T03:20:55;100180.28;;;18.32;100.00
69766;BME280;57039;48.014;21.384;2023-07-29T03:21:58;100174.12;;;18.31;100.00
69766;BME280;57039;48.014;21.384;2023-07-29T03:23:01;100176.22;;;18.37;100.00
69766;BME280;57039;48.014;21.384;2023-07-29T03:24:05;100168.12;;;18.29;100.00
69766;BME280;57039;48.014;21.384;2023-07-29T03:25:09;100178.03;;;18.37;100.00
69766;BME280;57039;48.014;21.384;2023-07-29T03:26:12;100176.22;;;18.37;100.00
69766;BME280;57039;48.014;21.384;2023-07-29T03:27:15;100176.06;;;18.39;100.00
69766;BME280;57039;48.014;21.384;2023-07-29T03:28:18;100179.84;;;18.36;100.00
69766;BME280;57039;48.014;21.384;2023-07-29T03:29:21;100177.34;;;18.35;100.00
69766;BME280;57039;48.014;21.384;2023-07-29T03:30:24;100174.50;;;18.36;100.00
69766;BME280;57039;48.014;21.384;2023-07-29T03:31:26;100176.06;;;18.39;100.00
69766;BME280;57039;48.014;21.384;2023-07-29T03:32:30;100178.44;;;18.42;100.00
69766;BME280;57039;48.014;21.384;2023-07-29T03:33:33;100172.97;;;18.43;100.00
69766;BME280;57039;48.014;21.384;2023-07-29T03:34:36;100191.56;;;18.43;100.00
69766;BME280;57039;48.014;21.384;2023-07-29T03:35:39;100183.44;;;18.45;100.00
69766;BME280;57039;48.014;21.384;2023-07-29T03:36:41;100185.69;;;18.50;100.00
69766;BME280;57039;48.014;21.384;2023-07-29T03:37:44;100182.59;;;18.54;100.00
69766;BME280;57039;48.014;21.384;2023-07-29T03:38:47;100188.63;;;18.46;100.00
69766;BME280;57039;48.014;21.384;2023-07-29T03:39:50;100181.25;;;18.40;100.00
69766;BME280;57039;48.014;21.384;2023-07-29T03:40:54;100184.31;;;18.36;100.00
69766;BME280;57039;48.014;21.384;2023-07-29T03:41:57;100187.66;;;18.38;100.00
69766;BME280;57039;48.014;21.384;2023-07-29T03:43:00;100190.16;;;18.39;100.00
69766;BME280;57039;48.014;21.384;2023-07-29T03:44:03;100192.69;;;18.41;100.00
69766;BME280;57039;48.014;21.384;2023-07-29T03:45:06;100200.22;;;18.45;100.00
69766;BME280;57039;48.014;21.384;2023-07-29T03:46:09;100188.75;;;18.45;100.00
69766;BME280;57039;48.014;21.384;2023-07-29T03:47:14;100191.97;;;18.48;100.00
69766;BME280;57039;48.014;21.384;2023-07-29T03:48:17;100192.53;;;18.52;100.00
69766;BME280;57039;48.014;21.384;2023-07-29T03:49:19;100193.37;;;18.53;100.00
69766;BME280;57039;48.014;21.384;2023-07-29T03:50:22;100190.56;;;18.54;100.00
69766;BME280;57039;48.014;21.384;2023-07-29T03:51:25;100189.59;;;18.55;100.00
69766;BME280;57039;48.014;21.384;2023-07-29T03:52:28;100198.69;;;18.53;100.00
69766;BME280;57039;48.014;21.384;2023-07-29T03:53:31;100195.19;;;18.52;100.00
69766;BME280;57039;48.014;21.384;2023-07-29T03:54:34;100204.13;;;18.51;100.00
69766;BME280;57039;48.014;21.384;2023-07-29T03:55:37;100200.09;;;18.47;100.00
69766;BME280;57039;48.014;21.384;2023-07-29T03:56:39;100208.91;;;18.47;100.00
69766;BME280;57039;48.014;21.384;2023-07-29T03:57:42;100203.59;;;18.47;100.00
69766;BME280;57039;48.014;21.384;2023-07-29T03:58:46;100207.63;;;18.52;100.00
69766;BME280;57039;48.014;21.384;2023-07-29T03:59:50;100206.09;;;18.59;100.00
69766;BME280;57039;48.014;21.384;2023-07-29T04:00:53;100208.88;;;18.67;100.00
69766;BME280;57039;48.014;21.384;2023-07-29T04:01:56;100201.44;;;18.70;100.00
69766;BME280;57039;48.014;21.384;2023-07-29T04:02:59;100195.12;;;18.71;100.00
69766;BME280;57039;48.014;21.384;2023-07-29T04:04:01;100198.62;;;18.72;100.00
69766;BME280;57039;48.014;21.384;2023-07-29T04:05:05;100180.88;;;18.63;100.00
69766;BME280;57039;48.014;21.384;2023-07-29T04:06:10;100199.47;;;18.73;100.00
69766;BME280;57039;48.014;21.384;2023-07-29T04:07:13;100198.22;;;18.77;100.00
69766;BME280;57039;48.014;21.384;2023-07-29T04:08:16;100198.06;;;18.78;100.00
69766;BME280;57039;48.014;21.384;2023-07-29T04:09:19;100203.37;;;18.78;100.00
69766;BME280;57039;48.014;21.384;2023-07-29T04:10:22;100206.63;;;18.82;100.00
69766;BME280;57039;48.014;21.384;2023-07-29T04:11:25;100204.34;;;18.87;100.00
69766;BME280;57039;48.014;21.384;2023-07-29T04:12:28;100206.63;;;18.82;100.00
69766;BME280;57039;48.014;21.384;2023-07-29T04:13:31;100204.50;;;18.85;100.00
69766;BME280;57039;48.014;21.384;2023-07-29T04:14:34;100200.16;;;18.84;100.00
69766;BME280;57039;48.014;21.384;2023-07-29T04:15:37;100198.59;;;18.91;100.00
69766;BME280;57039;48.014;21.384;2023-07-29T04:16:39;100201.50;;;18.98;100.00
69766;BME280;57039;48.014;21.384;2023-07-29T04:17:43;100202.50;;;18.97;100.00
69766;BME280;57039;48.014;21.384;2023-07-29T04:18:46;100203.88;;;19.01;100.00
69766;BME280;57039;48.014;21.384;2023-07-29T04:19:49;100170.22;;;18.82;100.00
69766;BME280;57039;48.014;21.384;2023-07-29T04:20:52;100200.38;;;19.01;100.00
69766;BME280;57039;48.014;21.384;2023-07-29T04:21:54;100199.38;;;19.02;100.00
69766;BME280;57039;48.014;21.384;2023-07-29T04:22:57;100202.03;;;19.02;100.00
69766;BME280;57039;48.014;21.384;2023-07-29T04:24:00;100204.56;;;19.03;100.00
69766;BME280;57039;48.014;21.384;2023-07-29T04:25:04;100208.19;;;19.02;100.00
69766;BME280;57039;48.014;21.384;2023-07-29T04:26:07;100210.44;;;19.07;100.00
69766;BME280;57039;48.014;21.384;2023-07-29T04:27:10;100211.44;;;18.96;100.00
69766;BME280;57039;48.014;21.384;2023-07-29T04:28:13;100210.19;;;19.00;100.00
69766;BME280;57039;48.014;21.384;2023-07-29T04:29:16;100199.97;;;18.96;100.00
69766;BME280;57039;48.014;21.384;2023-07-29T04:30:19;100215.03;;;19.05;100.00
69766;BME280;57039;48.014;21.384;2023-07-29T04:31:21;100212.97;;;18.99;100.00
69766;BME280;57039;48.014;21.384;2023-07-29T04:32:24;100204.62;;;18.93;100.00
69766;BME280;57039;48.014;21.384;2023-07-29T04:33:31;100211.59;;;18.95;100.00
69766;BME280;57039;48.014;21.384;2023-07-29T04:34:38;100216.75;;;18.96;100.00
69766;BME280;57039;48.014;21.384;2023-07-29T04:35:42;100159.91;;;18.60;100.00
69766;BME280;57039;48.014;21.384;2023-07-29T04:36:45;100218.81;;;19.02;100.00
69766;BME280;57039;48.014;21.384;2023-07-29T04:37:48;100216.75;;;19.06;100.00
69766;BME280;57039;48.014;21.384;2023-07-29T04:38:51;100219.13;;;18.99;100.00
69766;BME280;57039;48.014;21.384;2023-07-29T04:39:54;100221.91;;;19.07;100.00
69766;BME280;57039;48.014;21.384;2023-07-29T04:40:57;100218.09;;;19.10;100.00
69766;BME280;57039;48.014;21.384;2023-07-29T04:42:00;100220.47;;;19.13;100.00
69766;BME280;57039;48.014;21.384;2023-07-29T04:43:03;100220.34;;;19.14;100.00
69766;BME280;57039;48.014;21.384;2023-07-29T04:44:06;100219.19;;;19.17;100.00
69766;BME280;57039;48.014;21.384;2023-07-29T04:45:09;100217.22;;;19.19;100.00
69766;BME280;57039;48.014;21.384;2023-07-29T04:46:12;100216.09;;;19.22;100.00
69766;BME280;57039;48.014;21.384;2023-07-29T04:47:15;100218.16;;;19.28;100.00
69766;BME280;57039;48.014;21.384;2023-07-29T04:48:18;100224.03;;;19.31;100.00
69766;BME280;57039;48.014;21.384;2023-07-29T04:49:21;100230.75;;;19.35;100.00
69766;BME280;57039;48.014;21.384;2023-07-29T04:50:24;100227.09;;;19.36;100.00
69766;BME280;57039;48.014;21.384;2023-07-29T04:51:26;100232.12;;;19.39;100.00
69766;BME280;57039;48.014;21.384;2023-07-29T04:52:29;100224.97;;;19.40;100.00
69766;BME280;57039;48.014;21.384;2023-07-29T04:53:32;100222.16;;;19.42;100.00
69766;BME280;57039;48.014;21.384;2023-07-29T04:54:35;100233.78;;;19.41;100.00
69766;BME280;57039;48.014;21.384;2023-07-29T04:55:38;100228.22;;;19.34;100.00
69766;BME280;57039;48.014;21.384;2023-07-29T04:56:40;100230.03;;;19.33;100.00
69766;BME280;57039;48.014;21.384;2023-07-29T04:57:43;100227.22;;;19.35;100.00
69766;BME280;57039;48.014;21.384;2023-07-29T04:58:46;100230.16;;;19.42;100.00
69766;BME280;57039;48.014;21.384;2023-07-29T04:59:49;100234.47;;;19.43;100.00
69766;BME280;57039;48.014;21.384;2023-07-29T05:00:52;100240.19;;;19.48;100.00
69766;BME280;57039;48.014;21.384;2023-07-29T05:01:54;100238.66;;;19.45;100.00
69766;BME280;57039;48.014;21.384;2023-07-29T05:02:57;100239.25;;;19.39;100.00
69766;BME280;57039;48.014;21.384;2023-07-29T05:04:01;100242.47;;;19.43;100.00
69766;BME280;57039;48.014;21.384;2023-07-29T05:05:05;100240.63;;;19.43;100.00
69766;BME280;57039;48.014;21.384;2023-07-29T05:06:08;100244.22;;;19.52;100.00
69766;BME280;57039;48.014;21.384;2023-07-29T05:07:11;100235.12;;;19.54;100.00
69766;BME280;57039;48.014;21.384;2023-07-29T05:08:13;100239.97;;;19.59;100.00
69766;BME280;57039;48.014;21.384;2023-07-29T05:09:18;100234.22;;;19.64;100.00
69766;BME280;57039;48.014;21.384;2023-07-29T05:10:23;100249.91;;;19.67;100.00
69766;BME280;57039;48.014;21.384;2023-07-29T05:11:26;100250.75;;;19.67;100.00
69766;BME280;57039;48.014;21.384;2023-07-29T05:12:29;100244.13;;;19.71;100.00
69766;BME280;57039;48.014;21.384;2023-07-29T05:13:31;100244.72;;;19.65;100.00
69766;BME280;57039;48.014;21.384;2023-07-29T05:14:34;100251.00;;;19.64;100.00
69766;BME280;57039;48.014;21.384;2023-07-29T05:15:37;100243.16;;;19.72;100.00
69766;BME280;57039;48.014;21.384;2023-07-29T05:16:40;100249.72;;;19.78;100.00
69766;BME280;57039;48.014;21.384;2023-07-29T05:17:43;100247.41;;;19.83;100.00
69766;BME280;57039;48.014;21.384;2023-07-29T05:18:46;100252.91;;;19.81;100.00
69766;BME280;57039;48.014;21.384;2023-07-29T05:19:49;100251.75;;;19.84;100.00
69766;BME280;57039;48.014;21.384;2023-07-29T05:20:52;100249.63;;;19.88;100.00
69766;BME280;57039;48.014;21.384;2023-07-29T05:21:55;100256.63;;;19.89;100.00
69766;BME280;57039;48.014;21.384;2023-07-29T05:22:59;100244.37;;;19.78;100.00
69766;BME280;57039;48.014;21.384;2023-07-29T05:24:03;100255.97;;;19.87;100.00
69766;BME280;57039;48.014;21.384;2023-07-29T05:25:06;100256.50;;;19.90;100.00
69766;BME280;57039;48.014;21.384;2023-07-29T05:26:09;100258.38;;;19.98;100.00
69766;BME280;57039;48.014;21.384;2023-07-29T05:27:12;100259.59;;;20.03;100.00
69766;BME280;57039;48.014;21.384;2023-07-29T05:28:14;100259.16;;;20.08;100.00
69766;BME280;57039;48.014;21.384;2023-07-29T05:29:17;100260.53;;;20.12;100.00
69766;BME280;57039;48.014;21.384;2023-07-29T05:30:20;100262.75;;;20.17;100.00
69766;BME280;57039;48.014;21.384;2023-07-29T05:31:23;100257.75;;;20.22;100.00